sensor_id;sensor_type;location;lat;lon;timestamp;pressure;altitude;pressure_sealevel;temperature;humidity
17362;BME280;8798;51.938;4.348;2023-02-19T00:01:46;101799.66;;;11.32;81.76
17362;BME280;8798;51.938;4.348;2023-02-19T00:04:15;101797.84;;;11.33;82.22
17362;BME280;8798;51.938;4.348;2023-02-19T00:06:46;101805.03;;;11.32;82.25
17362;BME280;8798;51.938;4.348;2023-02-19T00:09:15;101805.91;;;11.33;82.04
17362;BME280;8798;51.938;4.348;2023-02-19T00:11:43;101797.84;;;11.33;81.99
17362;BME280;8798;51.938;4.348;2023-02-19T00:14:15;101812.13;;;11.33;81.69
17362;BME280;8798;51.938;4.348;2023-02-19T00:16:43;101815.66;;;11.34;81.51
17362;BME280;8798;51.938;4.348;2023-02-19T00:19:13;101821.78;;;11.36;82.12
17362;BME280;8798;51.938;4.348;2023-02-19T00:21:41;101830.69;;;11.36;81.81
17362;BME280;8798;51.938;4.348;2023-02-19T00:24:12;101836.78;;;11.38;81.63
17362;BME280;8798;51.938;4.348;2023-02-19T00:26:41;101847.44;;;11.40;81.62
17362;BME280;8798;51.938;4.348;2023-02-19T00:29:12;101851.81;;;11.41;82.02
17362;BME280;8798;51.938;4.348;2023-02-19T00:31:41;101849.97;;;11.41;81.98
17362;BME280;8798;51.938;4.348;2023-02-19T00:34:09;101850.97;;;11.40;81.62
17362;BME280;8798;51.938;4.348;2023-02-19T00:36:39;101854.38;;;11.43;81.93
17362;BME280;8798;51.938;4.348;2023-02-19T00:39:12;101865.84;;;11.45;81.65
17362;BME280;8798;51.938;4.348;2023-02-19T00:41:41;101864.16;;;11.44;81.62
17362;BME280;8798;51.938;4.348;2023-02-19T00:44:10;101848.28;;;11.40;82.12
17362;BME280;8798;51.938;4.348;2023-02-19T00:46:41;101855.34;;;11.41;81.95
17362;BME280;8798;51.938;4.348;2023-02-19T00:49:14;101853.50;;;11.42;81.25
17362;BME280;8798;51.938;4.348;2023-02-19T00:51:42;101863.31;;;11.43;81.77
17362;BME280;8798;51.938;4.348;2023-02-19T00:54:13;101871.22;;;11.45;82.06
17362;BME280;8798;51.938;4.348;2023-02-19T00:56:42;101871.09;;;11.46;81.93
17362;BME280;8798;51.938;4.348;2023-02-19T00:59:10;101874.63;;;11.47;81.31
17362;BME280;8798;51.938;4.348;2023-02-19T01:01:38;101877.22;;;11.48;81.46
17362;BME280;8798;51.938;4.348;2023-02-19T01:04:06;101896.78;;;11.50;81.25
17362;BME280;8798;51.938;4.348;2023-02-19T01:06:34;101899.31;;;11.52;81.78
17362;BME280;8798;51.938;4.348;2023-02-19T01:09:03;101908.97;;;11.54;81.70
17362;BME280;8798;51.938;4.348;2023-02-19T01:11:32;101918.75;;;11.55;81.96
17362;BME280;8798;51.938;4.348;2023-02-19T01:14:00;101920.44;;;11.56;81.57
17362;BME280;8798;51.938;4.348;2023-02-19T01:16:29;101924.88;;;11.57;81.51
17362;BME280;8798;51.938;4.348;2023-02-19T01:18:57;101929.25;;;11.58;81.41
17362;BME280;8798;51.938;4.348;2023-02-19T01:21:26;101937.19;;;11.60;81.54
17362;BME280;8798;51.938;4.348;2023-02-19T01:23:54;101949.53;;;11.62;81.12
17362;BME280;8798;51.938;4.348;2023-02-19T01:26:24;101950.38;;;11.63;81.19
17362;BME280;8798;51.938;4.348;2023-02-19T01:28:54;101961.88;;;11.65;81.57
17362;BME280;8798;51.938;4.348;2023-02-19T01:31:23;101956.50;;;11.65;81.54
17362;BME280;8798;51.938;4.348;2023-02-19T01:33:53;101961.88;;;11.65;81.63
17362;BME280;8798;51.938;4.348;2023-02-19T01:36:21;101962.72;;;11.66;80.96
17362;BME280;8798;51.938;4.348;2023-02-19T01:38:50;101954.78;;;11.64;81.10
17362;BME280;8798;51.938;4.348;2023-02-19T01:41:19;101965.41;;;11.66;81.25
17362;BME280;8798;51.938;4.348;2023-02-19T01:44:00;101948.66;;;11.62;81.54
17362;BME280;8798;51.938;4.348;2023-02-19T01:46:29;101940.59;;;11.62;81.60
17362;BME280;8798;51.938;4.348;2023-02-19T01:49:02;101952.22;;;11.62;80.95
17362;BME280;8798;51.938;4.348;2023-02-19T01:51:32;101942.16;;;11.65;81.53
17362;BME280;8798;51.938;4.348;2023-02-19T01:54:03;101948.53;;;11.63;80.88
17362;BME280;8798;51.938;4.348;2023-02-19T01:56:33;101960.03;;;11.66;81.27
17362;BME280;8798;51.938;4.348;2023-02-19T01:59:04;101959.03;;;11.67;81.31
17362;BME280;8798;51.938;4.348;2023-02-19T02:01:33;101963.47;;;11.68;81.36
17362;BME280;8798;51.938;4.348;2023-02-19T02:04:02;101965.31;;;11.67;80.90
17362;BME280;8798;51.938;4.348;2023-02-19T02:06:35;101958.06;;;11.68;80.86
17362;BME280;8798;51.938;4.348;2023-02-19T02:09:06;101962.47;;;11.69;81.53
17362;BME280;8798;51.938;4.348;2023-02-19T02:11:52;101964.31;;;11.68;81.04
17362;BME280;8798;51.938;4.348;2023-02-19T02:14:23;101969.56;;;11.70;80.65
17362;BME280;8798;51.938;4.348;2023-02-19T02:16:55;101974.06;;;11.69;81.26
17362;BME280;8798;51.938;4.348;2023-02-19T02:19:31;101965.31;;;11.67;80.79
17362;BME280;8798;51.938;4.348;2023-02-19T02:22:06;101959.91;;;11.67;80.71
17362;BME280;8798;51.938;4.348;2023-02-19T02:24:55;101961.72;;;11.67;80.97
17362;BME280;8798;51.938;4.348;2023-02-19T02:27:38;101955.50;;;11.66;80.60
17362;BME280;8798;51.938;4.348;2023-02-19T02:30:16;101957.34;;;11.66;80.70
17362;BME280;8798;51.938;4.348;2023-02-19T02:32:53;101955.50;;;11.66;80.61
17362;BME280;8798;51.938;4.348;2023-02-19T02:35:25;101957.34;;;11.66;81.00
17362;BME280;8798;51.938;4.348;2023-02-19T02:37:57;101962.59;;;11.67;81.01
17362;BME280;8798;51.938;4.348;2023-02-19T02:40:27;101959.03;;;11.67;80.84
17362;BME280;8798;51.938;4.348;2023-02-19T02:42:56;101965.16;;;11.69;80.59
17362;BME280;8798;51.938;4.348;2023-02-19T02:45:28;101968.69;;;11.69;81.03
17362;BME280;8798;51.938;4.348;2023-02-19T02:48:10;101969.56;;;11.70;80.41
17362;BME280;8798;51.938;4.348;2023-02-19T02:50:43;101979.22;;;11.72;80.12
17362;BME280;8798;51.938;4.348;2023-02-19T02:53:16;101984.44;;;11.74;80.16
17362;BME280;8798;51.938;4.348;2023-02-19T02:56:04;101988.13;;;11.73;80.86
17362;BME280;8798;51.938;4.348;2023-02-19T02:58:33;101985.44;;;11.73;80.04
17362;BME280;8798;51.938;4.348;2023-02-19T03:01:05;101981.75;;;11.74;80.27
17362;BME280;8798;51.938;4.348;2023-02-19T03:03:56;101972.09;;;11.71;80.37
17362;BME280;8798;51.938;4.348;2023-02-19T03:06:30;101973.94;;;11.71;80.22
17362;BME280;8798;51.938;4.348;2023-02-19T03:09:06;101977.50;;;11.71;80.53
17362;BME280;8798;51.938;4.348;2023-02-19T03:11:38;101966.72;;;11.71;80.17
17362;BME280;8798;51.938;4.348;2023-02-19T03:14:26;101965.16;;;11.69;80.20
17362;BME280;8798;51.938;4.348;2023-02-19T03:17:21;101957.22;;;11.67;80.70
17362;BME280;8798;51.938;4.348;2023-02-19T03:20:10;101960.63;;;11.69;80.13
17362;BME280;8798;51.938;4.348;2023-02-19T03:22:41;101969.56;;;11.70;79.97
17362;BME280;8798;51.938;4.348;2023-02-19T03:25:12;101967.72;;;11.70;80.14
17362;BME280;8798;51.938;4.348;2023-02-19T03:28:01;101951.97;;;11.66;79.59
17362;BME280;8798;51.938;4.348;2023-02-19T03:30:34;101932.66;;;11.60;80.11
17362;BME280;8798;51.938;4.348;2023-02-19T03:33:07;101924.59;;;11.60;79.88
17362;BME280;8798;51.938;4.348;2023-02-19T03:35:40;101931.81;;;11.60;79.63
17362;BME280;8798;51.938;4.348;2023-02-19T03:38:11;101925.72;;;11.58;80.06
17362;BME280;8798;51.938;4.348;2023-02-19T03:40:51;101922.28;;;11.56;79.46
17362;BME280;8798;51.938;4.348;2023-02-19T03:43:23;101915.22;;;11.55;79.79
17362;BME280;8798;51.938;4.348;2023-02-19T03:45:57;101918.75;;;11.55;79.99
17362;BME280;8798;51.938;4.348;2023-02-19T03:48:33;101910.81;;;11.54;79.94
17362;BME280;8798;51.938;4.348;2023-02-19T03:51:10;101910.81;;;11.54;79.46
17362;BME280;8798;51.938;4.348;2023-02-19T03:53:48;101917.03;;;11.54;79.84
17362;BME280;8798;51.938;4.348;2023-02-19T03:56:23;101928.53;;;11.56;79.09
17362;BME280;8798;51.938;4.348;2023-02-19T03:58:56;101936.59;;;11.56;80.04
17362;BME280;8798;51.938;4.348;2023-02-19T04:01:28;101925.81;;;11.56;79.79
17362;BME280;8798;51.938;4.348;2023-02-19T04:04:02;101934.06;;;11.55;79.61
17362;BME280;8798;51.938;4.348;2023-02-19T04:06:33;101925.97;;;11.55;79.80
17362;BME280;8798;51.938;4.348;2023-02-19T04:09:05;101919.03;;;11.52;79.75
17362;BME280;8798;51.938;4.348;2023-02-19T04:11:36;101907.53;;;11.50;79.75
17362;BME280;8798;51.938;4.348;2023-02-19T04:14:08;101898.00;;;11.46;79.74
17362;BME280;8798;51.938;4.348;2023-02-19T04:16:40;101882.97;;;11.44;79.38
17362;BME280;8798;51.938;4.348;2023-02-19T04:19:12;101878.59;;;11.43;79.16
17362;BME280;8798;51.938;4.348;2023-02-19T04:21:43;101885.66;;;11.44;79.37
17362;BME280;8798;51.938;4.348;2023-02-19T04:24:18;101893.63;;;11.45;79.82
17362;BME280;8798;51.938;4.348;2023-02-19T04:26:48;101914.88;;;11.48;79.78
17362;BME280;8798;51.938;4.348;2023-02-19T04:29:16;101917.56;;;11.48;79.24
17362;BME280;8798;51.938;4.348;2023-02-19T04:31:44;101908.78;;;11.46;79.63
17362;BME280;8798;51.938;4.348;2023-02-19T04:34:13;101911.56;;;11.45;79.20
17362;BME280;8798;51.938;4.348;2023-02-19T04:36:41;101905.34;;;11.44;79.15
17362;BME280;8798;51.938;4.348;2023-02-19T04:39:09;101893.88;;;11.42;79.16
17362;BME280;8798;51.938;4.348;2023-02-19T04:41:36;101886.06;;;11.39;79.43
17362;BME280;8798;51.938;4.348;2023-02-19T04:44:04;101876.41;;;11.36;78.96
17362;BME280;8798;51.938;4.348;2023-02-19T04:46:32;101879.22;;;11.35;78.77
17362;BME280;8798;51.938;4.348;2023-02-19T04:49:00;101881.78;;;11.36;79.13
17362;BME280;8798;51.938;4.348;2023-02-19T04:51:29;101880.94;;;11.36;78.86
17362;BME280;8798;51.938;4.348;2023-02-19T04:53:57;101891.72;;;11.36;78.89
17362;BME280;8798;51.938;4.348;2023-02-19T04:56:25;101885.47;;;11.35;79.46
17362;BME280;8798;51.938;4.348;2023-02-19T04:58:53;101906.13;;;11.35;79.02
17362;BME280;8798;51.938;4.348;2023-02-19T05:01:20;101909.53;;;11.37;78.69
17362;BME280;8798;51.938;4.348;2023-02-19T05:03:48;101916.66;;;11.38;79.37
17362;BME280;8798;51.938;4.348;2023-02-19T05:06:17;101911.38;;;11.36;78.59
17362;BME280;8798;51.938;4.348;2023-02-19T05:08:46;101908.13;;;11.33;78.58
17362;BME280;8798;51.938;4.348;2023-02-19T05:11:14;101888.56;;;11.31;79.07
17362;BME280;8798;51.938;4.348;2023-02-19T05:13:42;101875.63;;;11.25;78.84
17362;BME280;8798;51.938;4.348;2023-02-19T05:16:11;101865.00;;;11.23;78.58
17362;BME280;8798;51.938;4.348;2023-02-19T05:18:42;101867.81;;;11.22;78.99
17362;BME280;8798;51.938;4.348;2023-02-19T05:21:10;101846.84;;;11.15;78.91
17362;BME280;8798;51.938;4.348;2023-02-19T05:23:38;101797.75;;;11.02;78.79
17362;BME280;8798;51.938;4.348;2023-02-19T05:26:11;101775.94;;;10.95;79.03
17362;BME280;8798;51.938;4.348;2023-02-19T05:28:39;101758.50;;;10.90;78.93
17362;BME280;8798;51.938;4.348;2023-02-19T05:31:08;101755.06;;;10.88;79.09
17362;BME280;8798;51.938;4.348;2023-02-19T05:33:36;101763.13;;;10.88;79.20
17362;BME280;8798;51.938;4.348;2023-02-19T05:36:06;101757.91;;;10.86;79.30
17362;BME280;8798;51.938;4.348;2023-02-19T05:38:35;101755.50;;;10.83;78.85
17362;BME280;8798;51.938;4.348;2023-02-19T05:41:09;101744.97;;;10.80;79.14
17362;BME280;8798;51.938;4.348;2023-02-19T05:43:38;101723.28;;;10.72;79.30
17362;BME280;8798;51.938;4.348;2023-02-19T05:46:07;101699.78;;;10.64;79.16
17362;BME280;8798;51.938;4.348;2023-02-19T05:48:35;101675.41;;;10.56;78.96
17362;BME280;8798;51.938;4.348;2023-02-19T05:51:04;101667.59;;;10.53;79.28
17362;BME280;8798;51.938;4.348;2023-02-19T05:53:34;101667.59;;;10.53;79.08
17362;BME280;8798;51.938;4.348;2023-02-19T05:56:02;101663.47;;;10.49;79.45
17362;BME280;8798;51.938;4.348;2023-02-19T05:58:32;101674.22;;;10.49;79.15
17362;BME280;8798;51.938;4.348;2023-02-19T06:00:59;101680.44;;;10.49;79.47
17362;BME280;8798;51.938;4.348;2023-02-19T06:03:27;101693.75;;;10.51;79.17
17362;BME280;8798;51.938;4.348;2023-02-19T06:05:55;101694.88;;;10.48;79.15
17362;BME280;8798;51.938;4.348;2023-02-19T06:08:23;101683.25;;;10.48;79.27
17362;BME280;8798;51.938;4.348;2023-02-19T06:10:51;101701.31;;;10.46;79.35
17362;BME280;8798;51.938;4.348;2023-02-19T06:13:19;101704.00;;;10.46;79.61
17362;BME280;8798;51.938;4.348;2023-02-19T06:15:48;101716.34;;;10.48;79.63
17362;BME280;8798;51.938;4.348;2023-02-19T06:18:16;101725.38;;;10.47;79.52
17362;BME280;8798;51.938;4.348;2023-02-19T06:20:43;101733.31;;;10.49;79.50
17362;BME280;8798;51.938;4.348;2023-02-19T06:23:11;101754.53;;;10.52;79.58
17362;BME280;8798;51.938;4.348;2023-02-19T06:25:39;101767.84;;;10.53;79.93
17362;BME280;8798;51.938;4.348;2023-02-19T06:28:07;101772.34;;;10.53;79.54
17362;BME280;8798;51.938;4.348;2023-02-19T06:30:36;101766.28;;;10.51;79.73
17362;BME280;8798;51.938;4.348;2023-02-19T06:33:05;101778.72;;;10.52;79.81
17362;BME280;8798;51.938;4.348;2023-02-19T06:35:32;101791.31;;;10.51;79.65
17362;BME280;8798;51.938;4.348;2023-02-19T06:38:00;101810.69;;;10.55;79.88
17362;BME280;8798;51.938;4.348;2023-02-19T06:40:28;101794.00;;;10.51;80.29
17362;BME280;8798;51.938;4.348;2023-02-19T06:42:56;101796.94;;;10.48;80.10
17362;BME280;8798;51.938;4.348;2023-02-19T06:45:24;101800.47;;;10.49;80.11
17362;BME280;8798;51.938;4.348;2023-02-19T06:47:51;101812.06;;;10.49;80.43
17362;BME280;8798;51.938;4.348;2023-02-19T06:50:21;101827.91;;;10.52;79.84
17362;BME280;8798;51.938;4.348;2023-02-19T06:52:49;101841.97;;;10.56;80.32
17362;BME280;8798;51.938;4.348;2023-02-19T06:55:16;101857.94;;;10.58;80.40
17362;BME280;8798;51.938;4.348;2023-02-19T06:57:44;101855.41;;;10.56;80.21
17362;BME280;8798;51.938;4.348;2023-02-19T07:00:12;101877.47;;;10.60;80.12
17362;BME280;8798;51.938;4.348;2023-02-19T07:02:41;101876.63;;;10.59;80.11
17362;BME280;8798;51.938;4.348;2023-02-19T07:05:14;101888.22;;;10.60;80.10
17362;BME280;8798;51.938;4.348;2023-02-19T07:07:45;101895.44;;;10.59;80.18
17362;BME280;8798;51.938;4.348;2023-02-19T07:10:13;101898.13;;;10.59;80.24
17362;BME280;8798;51.938;4.348;2023-02-19T07:12:41;101912.28;;;10.61;80.53
17362;BME280;8798;51.938;4.348;2023-02-19T07:15:09;101914.84;;;10.63;80.53
17362;BME280;8798;51.938;4.348;2023-02-19T07:17:36;101937.91;;;10.65;80.25
17362;BME280;8798;51.938;4.348;2023-02-19T07:20:05;101941.47;;;10.66;80.59
17362;BME280;8798;51.938;4.348;2023-02-19T07:22:33;101954.78;;;10.67;80.24
17362;BME280;8798;51.938;4.348;2023-02-19T07:25:02;101967.09;;;10.70;80.59
17362;BME280;8798;51.938;4.348;2023-02-19T07:27:29;101994.34;;;10.76;80.35
17362;BME280;8798;51.938;4.348;2023-02-19T07:29:57;102010.22;;;10.80;80.24
17362;BME280;8798;51.938;4.348;2023-02-19T07:32:26;102022.56;;;10.82;80.51
17362;BME280;8798;51.938;4.348;2023-02-19T07:34:54;102040.16;;;10.86;80.76
17362;BME280;8798;51.938;4.348;2023-02-19T07:37:21;102049.91;;;10.87;80.62
17362;BME280;8798;51.938;4.348;2023-02-19T07:39:49;102066.78;;;10.89;80.91
17362;BME280;8798;51.938;4.348;2023-02-19T07:42:18;102050.06;;;10.86;80.53
17362;BME280;8798;51.938;4.348;2023-02-19T07:44:46;102055.66;;;10.83;80.26
17362;BME280;8798;51.938;4.348;2023-02-19T07:47:14;102036.25;;;10.79;80.25
17362;BME280;8798;51.938;4.348;2023-02-19T07:49:42;102034.53;;;10.78;80.84
17362;BME280;8798;51.938;4.348;2023-02-19T07:52:10;102029.41;;;10.75;80.15
17362;BME280;8798;51.938;4.348;2023-02-19T07:54:37;102018.91;;;10.72;80.35
17362;BME280;8798;51.938;4.348;2023-02-19T07:57:05;102032.22;;;10.73;80.71
17362;BME280;8798;51.938;4.348;2023-02-19T07:59:34;102040.88;;;10.77;80.49
17362;BME280;8798;51.938;4.348;2023-02-19T08:02:02;102060.44;;;10.79;80.34
17362;BME280;8798;51.938;4.348;2023-02-19T08:04:48;102056.91;;;10.79;80.29
17362;BME280;8798;51.938;4.348;2023-02-19T08:07:17;102049.06;;;10.75;80.48
17362;BME280;8798;51.938;4.348;2023-02-19T08:09:45;102066.91;;;10.76;80.17
17362;BME280;8798;51.938;4.348;2023-02-19T08:12:33;102061.66;;;10.75;80.25
17362;BME280;8798;51.938;4.348;2023-02-19T08:15:24;102062.63;;;10.74;80.41
17362;BME280;8798;51.938;4.348;2023-02-19T08:17:52;102074.97;;;10.76;80.44
17362;BME280;8798;51.938;4.348;2023-02-19T08:20:20;102086.47;;;10.79;80.55
17362;BME280;8798;51.938;4.348;2023-02-19T08:22:48;102102.34;;;10.82;80.71
17362;BME280;8798;51.938;4.348;2023-02-19T08:25:16;102116.50;;;10.84;80.22
17362;BME280;8798;51.938;4.348;2023-02-19T08:27:43;102135.94;;;10.87;80.43
17362;BME280;8798;51.938;4.348;2023-02-19T08:30:11;102133.25;;;10.87;80.17
17362;BME280;8798;51.938;4.348;2023-02-19T08:32:41;102143.88;;;10.89;80.57
17362;BME280;8798;51.938;4.348;2023-02-19T08:35:08;102154.38;;;10.92;80.35
17362;BME280;8798;51.938;4.348;2023-02-19T08:37:36;102191.66;;;10.96;80.11
17362;BME280;8798;51.938;4.348;2023-02-19T08:40:04;102212.81;;;11.01;80.48
17362;BME280;8798;51.938;4.348;2023-02-19T08:42:32;102199.38;;;11.01;80.53
17362;BME280;8798;51.938;4.348;2023-02-19T08:45:00;102195.22;;;10.97;80.43
17362;BME280;8798;51.938;4.348;2023-02-19T08:47:28;102203.03;;;11.00;80.25
17362;BME280;8798;51.938;4.348;2023-02-19T08:49:57;102214.50;;;11.02;80.55
17362;BME280;8798;51.938;4.348;2023-02-19T08:52:25;102238.47;;;11.05;80.43
17362;BME280;8798;51.938;4.348;2023-02-19T08:54:53;102241.91;;;11.07;80.01
17362;BME280;8798;51.938;4.348;2023-02-19T08:57:22;102223.44;;;11.03;80.29
17362;BME280;8798;51.938;4.348;2023-02-19T08:59:52;102246.44;;;11.07;80.33
17362;BME280;8798;51.938;4.348;2023-02-19T09:02:19;102236.66;;;11.06;80.03
17362;BME280;8798;51.938;4.348;2023-02-19T09:04:47;102221.72;;;11.02;80.28
17362;BME280;8798;51.938;4.348;2023-02-19T09:07:17;102233.34;;;11.02;79.64
17362;BME280;8798;51.938;4.348;2023-02-19T09:09:44;102244.72;;;11.06;80.60
17362;BME280;8798;51.938;4.348;2023-02-19T09:12:12;102242.03;;;11.06;80.24
17362;BME280;8798;51.938;4.348;2023-02-19T09:14:40;102238.72;;;11.02;80.20
17362;BME280;8798;51.938;4.348;2023-02-19T09:17:08;102229.81;;;11.02;80.13
17362;BME280;8798;51.938;4.348;2023-02-19T09:19:36;102219.41;;;10.97;79.95
17362;BME280;8798;51.938;4.348;2023-02-19T09:22:04;102217.69;;;10.96;79.76
17362;BME280;8798;51.938;4.348;2023-02-19T09:24:33;102223.94;;;10.96;80.12
17362;BME280;8798;51.938;4.348;2023-02-19T09:27:01;102214.28;;;10.94;79.99
17362;BME280;8798;51.938;4.348;2023-02-19T09:29:29;102195.22;;;10.86;79.58
17362;BME280;8798;51.938;4.348;2023-02-19T09:31:58;102155.50;;;10.78;79.44
17362;BME280;8798;51.938;4.348;2023-02-19T09:34:27;102142.41;;;10.73;80.08
17362;BME280;8798;51.938;4.348;2023-02-19T09:36:55;102155.50;;;10.78;79.36
17362;BME280;8798;51.938;4.348;2023-02-19T10:45:45;101866.53;;;9.50;79.39
17362;BME280;8798;51.938;4.348;2023-02-19T10:48:21;101976.41;;;9.74;79.71
17362;BME280;8798;51.938;4.348;2023-02-19T10:50:52;102076.75;;;9.96;79.36
17362;BME280;8798;51.938;4.348;2023-02-19T10:53:37;102166.53;;;10.16;80.02
17362;BME280;8798;51.938;4.348;2023-02-19T10:56:06;102209.66;;;10.25;79.62
17362;BME280;8798;51.938;4.348;2023-02-19T10:58:35;102253.66;;;10.36;79.41
17362;BME280;8798;51.938;4.348;2023-02-19T11:01:12;102281.91;;;10.41;79.70
17362;BME280;8798;51.938;4.348;2023-02-19T11:03:41;102307.47;;;10.47;79.47
17362;BME280;8798;51.938;4.348;2023-02-19T11:06:10;102355.84;;;10.58;79.22
17362;BME280;8798;51.938;4.348;2023-02-19T11:08:47;102402.59;;;10.68;79.42
17362;BME280;8798;51.938;4.348;2023-02-19T11:11:31;102408.81;;;10.69;79.39
17362;BME280;8798;51.938;4.348;2023-02-19T11:14:03;102384.97;;;10.64;79.49
17362;BME280;8798;51.938;4.348;2023-02-19T11:16:41;102370.91;;;10.61;79.67
17362;BME280;8798;51.938;4.348;2023-02-19T11:19:28;102412.25;;;10.71;79.17
17362;BME280;8798;51.938;4.348;2023-02-19T11:21:59;102476.59;;;10.85;79.43
17362;BME280;8798;51.938;4.348;2023-02-19T11:24:31;102536.81;;;10.95;79.73
17362;BME280;8798;51.938;4.348;2023-02-19T11:27:02;102571.81;;;11.07;79.51
17362;BME280;8798;51.938;4.348;2023-02-19T11:29:30;102623.72;;;11.20;79.42
17362;BME280;8798;51.938;4.348;2023-02-19T11:32:27;102658.91;;;11.30;79.42
17362;BME280;8798;51.938;4.348;2023-02-19T11:35:16;102705.72;;;11.40;79.61
17362;BME280;8798;51.938;4.348;2023-02-19T11:37:55;102711.72;;;11.44;79.35
17362;BME280;8798;51.938;4.348;2023-02-19T11:40:34;102717.97;;;11.44;79.19
17362;BME280;8798;51.938;4.348;2023-02-19T11:43:11;102721.41;;;11.46;79.57
17362;BME280;8798;51.938;4.348;2023-02-19T11:45:51;102739.91;;;11.51;79.42
17362;BME280;8798;51.938;4.348;2023-02-19T11:48:39;102731.84;;;11.51;78.96
17362;BME280;8798;51.938;4.348;2023-02-19T11:51:27;102744.31;;;11.52;79.17
17362;BME280;8798;51.938;4.348;2023-02-19T11:54:07;102725.59;;;11.50;79.35
17362;BME280;8798;51.938;4.348;2023-02-19T11:56:40;102725.59;;;11.50;79.40
17362;BME280;8798;51.938;4.348;2023-02-19T11:59:16;102711.41;;;11.48;79.29
17362;BME280;8798;51.938;4.348;2023-02-19T12:02:11;102668.03;;;11.40;79.04
17362;BME280;8798;51.938;4.348;2023-02-19T12:05:04;102652.22;;;11.35;79.40
17362;BME280;8798;51.938;4.348;2023-02-19T12:07:53;102645.00;;;11.36;79.19
17362;BME280;8798;51.938;4.348;2023-02-19T12:10:31;102587.81;;;11.21;79.04
17362;BME280;8798;51.938;4.348;2023-02-19T12:13:09;102557.81;;;11.14;78.72
17362;BME280;8798;51.938;4.348;2023-02-19T12:15:51;102530.41;;;11.09;78.47
17362;BME280;8798;51.938;4.348;2023-02-19T12:18:43;102521.56;;;11.07;78.87
17362;BME280;8798;51.938;4.348;2023-02-19T12:21:28;102533.09;;;11.09;79.07
17362;BME280;8798;51.938;4.348;2023-02-19T12:24:11;102571.91;;;11.18;78.53
17362;BME280;8798;51.938;4.348;2023-02-19T12:26:53;102602.75;;;11.25;78.59
17362;BME280;8798;51.938;4.348;2023-02-19T12:29:50;102606.31;;;11.26;78.66
17362;BME280;8798;51.938;4.348;2023-02-19T12:32:38;102613.28;;;11.28;78.62
17362;BME280;8798;51.938;4.348;2023-02-19T12:38:29;102611.56;;;11.27;78.56
17362;BME280;8798;51.938;4.348;2023-02-19T12:41:10;102593.81;;;11.25;78.31
17362;BME280;8798;51.938;4.348;2023-02-19T12:43:45;102585.75;;;11.25;78.14
17362;BME280;8798;51.938;4.348;2023-02-19T12:46:21;102571.78;;;11.19;78.27
17362;BME280;8798;51.938;4.348;2023-02-19T12:48:53;102548.78;;;11.15;78.34
17362;BME280;8798;51.938;4.348;2023-02-19T12:51:26;102540.81;;;11.14;78.52
17362;BME280;8798;51.938;4.348;2023-02-19T12:53:59;102552.31;;;11.16;77.87
17362;BME280;8798;51.938;4.348;2023-02-19T12:56:33;102546.09;;;11.15;78.48
17362;BME280;8798;51.938;4.348;2023-02-19T12:59:07;102538.13;;;11.14;78.04
17362;BME280;8798;51.938;4.348;2023-02-19T13:01:41;102575.31;;;11.20;77.92
17362;BME280;8798;51.938;4.348;2023-02-19T13:04:24;102559.53;;;11.15;78.19
17362;BME280;8798;51.938;4.348;2023-02-19T13:06:59;102525.88;;;11.10;77.80
17362;BME280;8798;51.938;4.348;2023-02-19T13:09:34;102517.09;;;11.08;78.03
17362;BME280;8798;51.938;4.348;2023-02-19T13:12:07;102489.88;;;11.00;77.88
17362;BME280;8798;51.938;4.348;2023-02-19T13:14:40;102468.84;;;10.93;77.71
17362;BME280;8798;51.938;4.348;2023-02-19T13:17:18;102467.09;;;10.92;77.99
17362;BME280;8798;51.938;4.348;2023-02-19T13:19:49;102483.88;;;10.96;77.54
17362;BME280;8798;51.938;4.348;2023-02-19T13:22:26;102528.03;;;11.05;77.33
17362;BME280;8798;51.938;4.348;2023-02-19T13:25:16;102525.25;;;11.06;77.84
17362;BME280;8798;51.938;4.348;2023-02-19T13:27:55;102553.50;;;11.12;77.73
17362;BME280;8798;51.938;4.348;2023-02-19T13:30:32;102583.50;;;11.18;77.92
17362;BME280;8798;51.938;4.348;2023-02-19T13:33:17;102560.72;;;11.11;77.85
17362;BME280;8798;51.938;4.348;2023-02-19T13:36:09;102494.63;;;10.96;77.80
17362;BME280;8798;51.938;4.348;2023-02-19T13:38:40;102388.19;;;10.69;77.70
17362;BME280;8798;51.938;4.348;2023-02-19T13:41:19;102380.34;;;10.66;77.79
17362;BME280;8798;51.938;4.348;2023-02-19T13:43:54;102377.75;;;10.65;77.58
17362;BME280;8798;51.938;4.348;2023-02-19T13:46:24;102327.75;;;10.51;77.42
17362;BME280;8798;51.938;4.348;2023-02-19T13:49:24;102357.69;;;10.58;77.94
17362;BME280;8798;51.938;4.348;2023-02-19T13:51:52;102338.38;;;10.52;77.70
17362;BME280;8798;51.938;4.348;2023-02-19T13:54:26;102328.09;;;10.46;77.64
17362;BME280;8798;51.938;4.348;2023-02-19T13:57:28;102362.44;;;10.54;77.56
17362;BME280;8798;51.938;4.348;2023-02-19T13:59:57;102352.91;;;10.50;77.76
17362;BME280;8798;51.938;4.348;2023-02-19T14:02:29;102356.56;;;10.49;77.49
17362;BME280;8798;51.938;4.348;2023-02-19T14:04:59;102350.44;;;10.47;77.55
17362;BME280;8798;51.938;4.348;2023-02-19T14:07:49;102324.91;;;10.41;77.48
17362;BME280;8798;51.938;4.348;2023-02-19T14:13:59;102355.06;;;10.45;77.61
17362;BME280;8798;51.938;4.348;2023-02-19T14:16:56;102401.78;;;10.55;77.72
17362;BME280;8798;51.938;4.348;2023-02-19T14:19:57;102437.97;;;10.62;77.52
17362;BME280;8798;51.938;4.348;2023-02-19T14:25:58;102396.72;;;10.50;77.77
17362;BME280;8798;51.938;4.348;2023-02-19T14:28:33;102344.66;;;10.40;77.98
17362;BME280;8798;51.938;4.348;2023-02-19T14:31:09;102367.88;;;10.41;77.17
17362;BME280;8798;51.938;4.348;2023-02-19T14:33:44;102380.22;;;10.44;77.63
17362;BME280;8798;51.938;4.348;2023-02-19T14:36:31;102389.25;;;10.43;77.53
17362;BME280;8798;51.938;4.348;2023-02-19T14:39:02;102390.97;;;10.44;77.48
17362;BME280;8798;51.938;4.348;2023-02-19T14:41:35;102410.41;;;10.47;77.55
17362;BME280;8798;51.938;4.348;2023-02-19T14:44:05;102430.81;;;10.50;77.70
17362;BME280;8798;51.938;4.348;2023-02-19T14:46:47;102457.97;;;10.58;77.69